sensor_id;sensor_type;location;lat;lon;timestamp;P1;durP1;ratioP1;P2;durP2;ratioP2
38196;SDS011;26543;51.976;4.616;2022-08-19T00:00:27;4.57;;;3.47;;
38196;SDS011;26543;51.976;4.616;2022-08-19T00:02:52;7.13;;;4.18;;
38196;SDS011;26543;51.976;4.616;2022-08-19T00:05:19;5.13;;;2.85;;
38196;SDS011;26543;51.976;4.616;2022-08-19T00:07:46;4.32;;;3.30;;
38196;SDS011;26543;51.976;4.616;2022-08-19T00:10:13;5.00;;;3.45;;
38196;SDS011;26543;51.976;4.616;2022-08-19T00:12:40;4.72;;;3.53;;
38196;SDS011;26543;51.976;4.616;2022-08-19T00:15:06;8.55;;;3.40;;
38196;SDS011;26543;51.976;4.616;2022-08-19T00:17:36;5.78;;;3.30;;
38196;SDS011;26543;51.976;4.616;2022-08-19T00:20:02;6.40;;;3.25;;
38196;SDS011;26543;51.976;4.616;2022-08-19T00:22:28;4.07;;;2.97;;
38196;SDS011;26543;51.976;4.616;2022-08-19T00:24:54;4.10;;;2.90;;
38196;SDS011;26543;51.976;4.616;2022-08-19T00:27:19;4.97;;;2.58;;
38196;SDS011;26543;51.976;4.616;2022-08-19T00:29:44;5.03;;;3.20;;
38196;SDS011;26543;51.976;4.616;2022-08-19T00:32:10;3.47;;;2.78;;
38196;SDS011;26543;51.976;4.616;2022-08-19T00:34:35;4.47;;;3.15;;
38196;SDS011;26543;51.976;4.616;2022-08-19T00:37:01;3.90;;;2.85;;
38196;SDS011;26543;51.976;4.616;2022-08-19T00:39:26;4.10;;;2.70;;
38196;SDS011;26543;51.976;4.616;2022-08-19T00:41:51;6.75;;;3.88;;
38196;SDS011;26543;51.976;4.616;2022-08-19T00:44:18;6.05;;;3.50;;
38196;SDS011;26543;51.976;4.616;2022-08-19T00:46:49;6.05;;;4.25;;
38196;SDS011;26543;51.976;4.616;2022-08-19T00:49:23;4.25;;;3.17;;
38196;SDS011;26543;51.976;4.616;2022-08-19T00:51:55;6.65;;;4.20;;
38196;SDS011;26543;51.976;4.616;2022-08-19T00:54:26;5.30;;;3.72;;
38196;SDS011;26543;51.976;4.616;2022-08-19T00:56:52;5.45;;;3.60;;
38196;SDS011;26543;51.976;4.616;2022-08-19T00:59:18;8.90;;;4.10;;
38196;SDS011;26543;51.976;4.616;2022-08-19T01:01:44;5.05;;;3.10;;
38196;SDS011;26543;51.976;4.616;2022-08-19T01:04:11;6.78;;;4.25;;
38196;SDS011;26543;51.976;4.616;2022-08-19T01:06:37;5.75;;;4.03;;
38196;SDS011;26543;51.976;4.616;2022-08-19T01:09:05;4.88;;;3.80;;
38196;SDS011;26543;51.976;4.616;2022-08-19T01:11:33;5.22;;;3.80;;
38196;SDS011;26543;51.976;4.616;2022-08-19T01:14:06;6.57;;;4.15;;
38196;SDS011;26543;51.976;4.616;2022-08-19T01:16:33;4.97;;;3.90;;
38196;SDS011;26543;51.976;4.616;2022-08-19T01:18:59;6.35;;;4.68;;
38196;SDS011;26543;51.976;4.616;2022-08-19T01:21:40;8.35;;;4.43;;
38196;SDS011;26543;51.976;4.616;2022-08-19T01:24:11;6.50;;;4.30;;
38196;SDS011;26543;51.976;4.616;2022-08-19T01:26:40;5.03;;;3.45;;
38196;SDS011;26543;51.976;4.616;2022-08-19T01:29:08;5.40;;;3.78;;
38196;SDS011;26543;51.976;4.616;2022-08-19T01:31:35;5.53;;;3.85;;
38196;SDS011;26543;51.976;4.616;2022-08-19T01:34:02;4.43;;;3.17;;
38196;SDS011;26543;51.976;4.616;2022-08-19T01:36:33;3.92;;;3.25;;
38196;SDS011;26543;51.976;4.616;2022-08-19T01:39:02;4.63;;;3.33;;
38196;SDS011;26543;51.976;4.616;2022-08-19T01:41:31;7.40;;;3.22;;
38196;SDS011;26543;51.976;4.616;2022-08-19T01:43:57;4.13;;;3.17;;
38196;SDS011;26543;51.976;4.616;2022-08-19T01:46:22;4.15;;;3.35;;
38196;SDS011;26543;51.976;4.616;2022-08-19T01:48:48;5.00;;;3.20;;
38196;SDS011;26543;51.976;4.616;2022-08-19T01:51:13;4.72;;;2.75;;
38196;SDS011;26543;51.976;4.616;2022-08-19T01:53:39;4.30;;;3.38;;
38196;SDS011;26543;51.976;4.616;2022-08-19T01:56:06;5.38;;;3.47;;
38196;SDS011;26543;51.976;4.616;2022-08-19T01:58:34;5.20;;;3.65;;
38196;SDS011;26543;51.976;4.616;2022-08-19T02:01:03;4.55;;;4.05;;
38196;SDS011;26543;51.976;4.616;2022-08-19T02:03:29;4.97;;;3.10;;
38196;SDS011;26543;51.976;4.616;2022-08-19T02:05:59;4.13;;;3.47;;
38196;SDS011;26543;51.976;4.616;2022-08-19T02:08:28;4.57;;;3.67;;
38196;SDS011;26543;51.976;4.616;2022-08-19T02:10:54;5.50;;;3.13;;
38196;SDS011;26543;51.976;4.616;2022-08-19T02:13:19;5.07;;;3.72;;
38196;SDS011;26543;51.976;4.616;2022-08-19T02:15:45;8.15;;;3.17;;
38196;SDS011;26543;51.976;4.616;2022-08-19T02:18:11;5.60;;;3.38;;
38196;SDS011;26543;51.976;4.616;2022-08-19T02:20:37;4.20;;;3.08;;
38196;SDS011;26543;51.976;4.616;2022-08-19T02:23:04;5.60;;;3.90;;
38196;SDS011;26543;51.976;4.616;2022-08-19T02:25:31;4.40;;;3.45;;
38196;SDS011;26543;51.976;4.616;2022-08-19T02:27:56;5.35;;;3.90;;
38196;SDS011;26543;51.976;4.616;2022-08-19T02:30:22;7.97;;;4.35;;
38196;SDS011;26543;51.976;4.616;2022-08-19T02:32:47;5.63;;;4.25;;
38196;SDS011;26543;51.976;4.616;2022-08-19T02:35:13;7.00;;;4.45;;
38196;SDS011;26543;51.976;4.616;2022-08-19T02:37:39;4.68;;;3.72;;
38196;SDS011;26543;51.976;4.616;2022-08-19T02:40:26;5.47;;;3.97;;
38196;SDS011;26543;51.976;4.616;2022-08-19T02:42:52;6.30;;;4.82;;
38196;SDS011;26543;51.976;4.616;2022-08-19T02:45:17;10.52;;;5.97;;
38196;SDS011;26543;51.976;4.616;2022-08-19T02:47:43;8.57;;;5.15;;
38196;SDS011;26543;51.976;4.616;2022-08-19T02:50:08;10.00;;;6.75;;
38196;SDS011;26543;51.976;4.616;2022-08-19T02:52:34;8.10;;;6.22;;
38196;SDS011;26543;51.976;4.616;2022-08-19T02:55:00;8.68;;;6.60;;
38196;SDS011;26543;51.976;4.616;2022-08-19T02:57:26;8.90;;;6.13;;
38196;SDS011;26543;51.976;4.616;2022-08-19T02:59:52;7.40;;;4.57;;
38196;SDS011;26543;51.976;4.616;2022-08-19T03:02:18;9.88;;;6.25;;
38196;SDS011;26543;51.976;4.616;2022-08-19T03:04:44;10.60;;;7.75;;
38196;SDS011;26543;51.976;4.616;2022-08-19T03:07:12;10.30;;;7.28;;
38196;SDS011;26543;51.976;4.616;2022-08-19T03:09:39;12.02;;;8.38;;
38196;SDS011;26543;51.976;4.616;2022-08-19T03:12:04;11.55;;;8.13;;
38196;SDS011;26543;51.976;4.616;2022-08-19T03:14:30;10.38;;;7.78;;
38196;SDS011;26543;51.976;4.616;2022-08-19T03:16:56;9.23;;;7.22;;
38196;SDS011;26543;51.976;4.616;2022-08-19T03:19:22;13.13;;;7.25;;
38196;SDS011;26543;51.976;4.616;2022-08-19T03:21:48;13.63;;;8.93;;
38196;SDS011;26543;51.976;4.616;2022-08-19T03:24:14;12.65;;;8.25;;
38196;SDS011;26543;51.976;4.616;2022-08-19T03:26:44;12.68;;;8.65;;
38196;SDS011;26543;51.976;4.616;2022-08-19T03:29:15;10.40;;;6.78;;
38196;SDS011;26543;51.976;4.616;2022-08-19T03:31:42;12.15;;;8.23;;
38196;SDS011;26543;51.976;4.616;2022-08-19T03:34:08;10.98;;;7.97;;
38196;SDS011;26543;51.976;4.616;2022-08-19T03:36:36;11.65;;;8.48;;
38196;SDS011;26543;51.976;4.616;2022-08-19T03:39:02;12.13;;;8.20;;
38196;SDS011;26543;51.976;4.616;2022-08-19T03:41:32;14.75;;;9.07;;
38196;SDS011;26543;51.976;4.616;2022-08-19T03:44:01;9.93;;;7.07;;
38196;SDS011;26543;51.976;4.616;2022-08-19T03:46:29;15.38;;;9.82;;
38196;SDS011;26543;51.976;4.616;2022-08-19T03:48:58;12.93;;;8.70;;
38196;SDS011;26543;51.976;4.616;2022-08-19T03:51:26;15.48;;;9.85;;
38196;SDS011;26543;51.976;4.616;2022-08-19T03:53:56;12.98;;;9.18;;
38196;SDS011;26543;51.976;4.616;2022-08-19T03:56:23;13.45;;;7.63;;
38196;SDS011;26543;51.976;4.616;2022-08-19T03:58:50;15.43;;;8.65;;
38196;SDS011;26543;51.976;4.616;2022-08-19T04:01:18;10.10;;;8.32;;
38196;SDS011;26543;51.976;4.616;2022-08-19T04:03:46;16.00;;;9.65;;
38196;SDS011;26543;51.976;4.616;2022-08-19T04:06:16;16.00;;;11.40;;
38196;SDS011;26543;51.976;4.616;2022-08-19T04:08:47;20.90;;;12.60;;
38196;SDS011;26543;51.976;4.616;2022-08-19T04:11:16;20.42;;;13.07;;
38196;SDS011;26543;51.976;4.616;2022-08-19T04:13:52;19.60;;;11.98;;
38196;SDS011;26543;51.976;4.616;2022-08-19T04:16:18;25.23;;;14.30;;
38196;SDS011;26543;51.976;4.616;2022-08-19T04:18:45;24.15;;;14.18;;
38196;SDS011;26543;51.976;4.616;2022-08-19T04:21:20;23.20;;;14.32;;
38196;SDS011;26543;51.976;4.616;2022-08-19T04:23:51;25.27;;;16.30;;
38196;SDS011;26543;51.976;4.616;2022-08-19T04:26:18;24.48;;;16.55;;
38196;SDS011;26543;51.976;4.616;2022-08-19T04:28:46;28.63;;;17.90;;
38196;SDS011;26543;51.976;4.616;2022-08-19T04:31:12;27.65;;;16.55;;
38196;SDS011;26543;51.976;4.616;2022-08-19T04:33:40;28.45;;;18.10;;
38196;SDS011;26543;51.976;4.616;2022-08-19T04:36:06;29.48;;;17.98;;
38196;SDS011;26543;51.976;4.616;2022-08-19T04:38:31;27.60;;;15.70;;
38196;SDS011;26543;51.976;4.616;2022-08-19T04:40:57;32.15;;;18.15;;
38196;SDS011;26543;51.976;4.616;2022-08-19T04:43:40;29.85;;;17.17;;
38196;SDS011;26543;51.976;4.616;2022-08-19T04:46:07;28.25;;;16.13;;
38196;SDS011;26543;51.976;4.616;2022-08-19T04:48:35;28.90;;;18.35;;
38196;SDS011;26543;51.976;4.616;2022-08-19T04:51:01;30.88;;;18.50;;
38196;SDS011;26543;51.976;4.616;2022-08-19T04:53:31;25.98;;;16.55;;
38196;SDS011;26543;51.976;4.616;2022-08-19T04:55:58;31.60;;;17.75;;
38196;SDS011;26543;51.976;4.616;2022-08-19T04:58:25;29.85;;;17.52;;
38196;SDS011;26543;51.976;4.616;2022-08-19T05:00:52;36.22;;;16.77;;
38196;SDS011;26543;51.976;4.616;2022-08-19T05:03:18;28.27;;;18.15;;
38196;SDS011;26543;51.976;4.616;2022-08-19T05:05:45;30.02;;;18.00;;
38196;SDS011;26543;51.976;4.616;2022-08-19T05:08:15;28.35;;;17.23;;
38196;SDS011;26543;51.976;4.616;2022-08-19T05:10:44;34.15;;;17.67;;
38196;SDS011;26543;51.976;4.616;2022-08-19T05:13:11;29.65;;;16.75;;
38196;SDS011;26543;51.976;4.616;2022-08-19T05:15:37;29.85;;;16.10;;
38196;SDS011;26543;51.976;4.616;2022-08-19T05:18:02;30.80;;;17.35;;
38196;SDS011;26543;51.976;4.616;2022-08-19T05:20:46;25.13;;;15.38;;
38196;SDS011;26543;51.976;4.616;2022-08-19T05:23:31;25.85;;;15.90;;
38196;SDS011;26543;51.976;4.616;2022-08-19T05:25:56;31.02;;;16.10;;
38196;SDS011;26543;51.976;4.616;2022-08-19T05:28:21;29.50;;;16.40;;
38196;SDS011;26543;51.976;4.616;2022-08-19T05:30:50;24.67;;;15.65;;
38196;SDS011;26543;51.976;4.616;2022-08-19T05:33:15;25.75;;;17.48;;
38196;SDS011;26543;51.976;4.616;2022-08-19T05:35:41;23.38;;;16.00;;
38196;SDS011;26543;51.976;4.616;2022-08-19T05:38:08;28.20;;;16.67;;
38196;SDS011;26543;51.976;4.616;2022-08-19T05:40:37;25.73;;;17.13;;
38196;SDS011;26543;51.976;4.616;2022-08-19T05:43:04;28.80;;;15.68;;
38196;SDS011;26543;51.976;4.616;2022-08-19T05:45:31;32.38;;;16.77;;
38196;SDS011;26543;51.976;4.616;2022-08-19T05:47:57;23.52;;;15.65;;
38196;SDS011;26543;51.976;4.616;2022-08-19T05:50:23;23.48;;;15.55;;
38196;SDS011;26543;51.976;4.616;2022-08-19T05:52:51;31.42;;;16.75;;
38196;SDS011;26543;51.976;4.616;2022-08-19T05:55:17;24.55;;;13.65;;
38196;SDS011;26543;51.976;4.616;2022-08-19T05:57:45;27.02;;;15.82;;
38196;SDS011;26543;51.976;4.616;2022-08-19T06:00:11;25.73;;;15.25;;
38196;SDS011;26543;51.976;4.616;2022-08-19T06:02:37;23.70;;;16.30;;
38196;SDS011;26543;51.976;4.616;2022-08-19T06:05:03;19.58;;;14.68;;
38196;SDS011;26543;51.976;4.616;2022-08-19T06:07:32;23.55;;;14.98;;
38196;SDS011;26543;51.976;4.616;2022-08-19T06:09:57;27.05;;;16.83;;
38196;SDS011;26543;51.976;4.616;2022-08-19T06:12:23;23.27;;;14.60;;
38196;SDS011;26543;51.976;4.616;2022-08-19T06:14:54;21.95;;;14.00;;
38196;SDS011;26543;51.976;4.616;2022-08-19T06:17:20;27.48;;;15.65;;
38196;SDS011;26543;51.976;4.616;2022-08-19T06:19:47;21.25;;;15.18;;
38196;SDS011;26543;51.976;4.616;2022-08-19T06:22:14;25.42;;;15.35;;
38196;SDS011;26543;51.976;4.616;2022-08-19T06:24:40;22.75;;;15.65;;
38196;SDS011;26543;51.976;4.616;2022-08-19T06:27:06;19.35;;;14.05;;
38196;SDS011;26543;51.976;4.616;2022-08-19T06:29:31;23.38;;;13.88;;
38196;SDS011;26543;51.976;4.616;2022-08-19T06:31:58;31.70;;;15.82;;
38196;SDS011;26543;51.976;4.616;2022-08-19T06:34:25;22.13;;;14.77;;
38196;SDS011;26543;51.976;4.616;2022-08-19T06:36:53;19.50;;;13.15;;
38196;SDS011;26543;51.976;4.616;2022-08-19T06:39:20;16.70;;;12.25;;
38196;SDS011;26543;51.976;4.616;2022-08-19T06:41:49;17.52;;;12.60;;
38196;SDS011;26543;51.976;4.616;2022-08-19T06:44:19;18.65;;;14.07;;
38196;SDS011;26543;51.976;4.616;2022-08-19T06:46:46;25.50;;;14.27;;
38196;SDS011;26543;51.976;4.616;2022-08-19T06:49:13;15.93;;;11.57;;
38196;SDS011;26543;51.976;4.616;2022-08-19T06:51:40;15.40;;;11.40;;
38196;SDS011;26543;51.976;4.616;2022-08-19T06:54:07;16.98;;;12.60;;
38196;SDS011;26543;51.976;4.616;2022-08-19T06:56:33;19.58;;;11.57;;
38196;SDS011;26543;51.976;4.616;2022-08-19T06:59:06;15.85;;;11.80;;
38196;SDS011;26543;51.976;4.616;2022-08-19T07:01:37;16.52;;;10.48;;
38196;SDS011;26543;51.976;4.616;2022-08-19T07:04:07;17.83;;;11.50;;
38196;SDS011;26543;51.976;4.616;2022-08-19T07:06:34;18.27;;;10.82;;
38196;SDS011;26543;51.976;4.616;2022-08-19T07:09:00;19.92;;;11.02;;
38196;SDS011;26543;51.976;4.616;2022-08-19T07:11:26;16.02;;;11.35;;
38196;SDS011;26543;51.976;4.616;2022-08-19T07:13:51;18.52;;;10.93;;
38196;SDS011;26543;51.976;4.616;2022-08-19T07:16:18;17.90;;;12.10;;
38196;SDS011;26543;51.976;4.616;2022-08-19T07:18:45;16.58;;;11.45;;
38196;SDS011;26543;51.976;4.616;2022-08-19T07:21:13;13.65;;;10.93;;
38196;SDS011;26543;51.976;4.616;2022-08-19T07:23:41;12.93;;;9.93;;
38196;SDS011;26543;51.976;4.616;2022-08-19T07:26:09;13.55;;;10.25;;
38196;SDS011;26543;51.976;4.616;2022-08-19T07:28:40;17.67;;;11.15;;
38196;SDS011;26543;51.976;4.616;2022-08-19T07:31:16;14.40;;;11.00;;
38196;SDS011;26543;51.976;4.616;2022-08-19T07:33:43;12.80;;;9.48;;
38196;SDS011;26543;51.976;4.616;2022-08-19T07:36:10;12.80;;;9.30;;
38196;SDS011;26543;51.976;4.616;2022-08-19T07:38:37;19.00;;;12.27;;
38196;SDS011;26543;51.976;4.616;2022-08-19T07:41:05;14.38;;;9.57;;
38196;SDS011;26543;51.976;4.616;2022-08-19T07:43:31;15.30;;;10.60;;
38196;SDS011;26543;51.976;4.616;2022-08-19T07:45:57;15.05;;;10.45;;
38196;SDS011;26543;51.976;4.616;2022-08-19T07:48:23;14.80;;;10.40;;
38196;SDS011;26543;51.976;4.616;2022-08-19T07:50:52;16.77;;;10.10;;
38196;SDS011;26543;51.976;4.616;2022-08-19T07:53:20;14.30;;;10.10;;
38196;SDS011;26543;51.976;4.616;2022-08-19T07:55:49;16.20;;;10.13;;
38196;SDS011;26543;51.976;4.616;2022-08-19T07:58:18;14.75;;;10.55;;
38196;SDS011;26543;51.976;4.616;2022-08-19T08:00:45;15.38;;;10.07;;
38196;SDS011;26543;51.976;4.616;2022-08-19T08:03:12;14.18;;;9.73;;
38196;SDS011;26543;51.976;4.616;2022-08-19T08:05:39;12.90;;;9.35;;
38196;SDS011;26543;51.976;4.616;2022-08-19T08:08:23;11.68;;;9.13;;
38196;SDS011;26543;51.976;4.616;2022-08-19T08:11:07;15.68;;;10.35;;
38196;SDS011;26543;51.976;4.616;2022-08-19T08:13:35;14.52;;;9.45;;
38196;SDS011;26543;51.976;4.616;2022-08-19T08:16:01;10.70;;;8.82;;
38196;SDS011;26543;51.976;4.616;2022-08-19T08:18:27;12.40;;;9.20;;
38196;SDS011;26543;51.976;4.616;2022-08-19T08:20:54;13.90;;;9.63;;
38196;SDS011;26543;51.976;4.616;2022-08-19T08:23:23;12.95;;;9.77;;
38196;SDS011;26543;51.976;4.616;2022-08-19T08:25:52;14.57;;;9.97;;
38196;SDS011;26543;51.976;4.616;2022-08-19T08:28:20;14.07;;;8.95;;
38196;SDS011;26543;51.976;4.616;2022-08-19T08:30:47;10.68;;;8.05;;
38196;SDS011;26543;51.976;4.616;2022-08-19T08:33:16;16.08;;;8.80;;
38196;SDS011;26543;51.976;4.616;2022-08-19T08:35:44;14.00;;;8.45;;
38196;SDS011;26543;51.976;4.616;2022-08-19T08:38:10;13.68;;;8.40;;
38196;SDS011;26543;51.976;4.616;2022-08-19T08:46:06;9.50;;;6.63;;
38196;SDS011;26543;51.976;4.616;2022-08-19T08:48:39;10.95;;;6.90;;
38196;SDS011;26543;51.976;4.616;2022-08-19T08:51:12;10.27;;;7.82;;
38196;SDS011;26543;51.976;4.616;2022-08-19T08:53:43;12.40;;;6.47;;
38196;SDS011;26543;51.976;4.616;2022-08-19T08:56:12;13.38;;;7.53;;
38196;SDS011;26543;51.976;4.616;2022-08-19T08:58:43;9.50;;;6.43;;
38196;SDS011;26543;51.976;4.616;2022-08-19T09:01:16;9.40;;;6.43;;
38196;SDS011;26543;51.976;4.616;2022-08-19T09:03:42;8.93;;;6.03;;
38196;SDS011;26543;51.976;4.616;2022-08-19T09:06:14;6.68;;;5.95;;
38196;SDS011;26543;51.976;4.616;2022-08-19T09:16:52;6.38;;;5.20;;
38196;SDS011;26543;51.976;4.616;2022-08-19T09:19:17;8.95;;;4.28;;
38196;SDS011;26543;51.976;4.616;2022-08-19T09:21:43;6.13;;;4.20;;
38196;SDS011;26543;51.976;4.616;2022-08-19T09:24:10;8.38;;;4.75;;
38196;SDS011;26543;51.976;4.616;2022-08-19T09:26:35;7.15;;;4.10;;
38196;SDS011;26543;51.976;4.616;2022-08-19T09:29:01;5.28;;;3.75;;
38196;SDS011;26543;51.976;4.616;2022-08-19T09:31:29;5.65;;;3.50;;
38196;SDS011;26543;51.976;4.616;2022-08-19T09:33:55;6.45;;;3.83;;
38196;SDS011;26543;51.976;4.616;2022-08-19T09:36:24;6.03;;;3.92;;
38196;SDS011;26543;51.976;4.616;2022-08-19T09:38:54;5.57;;;3.13;;
38196;SDS011;26543;51.976;4.616;2022-08-19T09:41:21;5.22;;;3.55;;
38196;SDS011;26543;51.976;4.616;2022-08-19T09:43:49;7.28;;;2.97;;
38196;SDS011;26543;51.976;4.616;2022-08-19T09:46:17;6.53;;;3.15;;
38196;SDS011;26543;51.976;4.616;2022-08-19T09:48:44;5.32;;;3.40;;
38196;SDS011;26543;51.976;4.616;2022-08-19T09:51:13;5.97;;;3.67;;
38196;SDS011;26543;51.976;4.616;2022-08-19T09:53:40;6.68;;;4.35;;
38196;SDS011;26543;51.976;4.616;2022-08-19T09:56:06;8.05;;;4.93;;
38196;SDS011;26543;51.976;4.616;2022-08-19T09:58:32;8.98;;;4.78;;
38196;SDS011;26543;51.976;4.616;2022-08-19T10:00:59;7.45;;;4.57;;
38196;SDS011;26543;51.976;4.616;2022-08-19T10:03:26;10.10;;;4.82;;
38196;SDS011;26543;51.976;4.616;2022-08-19T10:05:52;6.63;;;4.90;;
38196;SDS011;26543;51.976;4.616;2022-08-19T10:08:19;6.07;;;4.85;;
38196;SDS011;26543;51.976;4.616;2022-08-19T10:10:50;6.05;;;5.13;;
38196;SDS011;26543;51.976;4.616;2022-08-19T10:13:22;5.40;;;4.55;;
38196;SDS011;26543;51.976;4.616;2022-08-19T10:15:50;5.90;;;4.43;;
38196;SDS011;26543;51.976;4.616;2022-08-19T10:18:17;9.02;;;4.30;;
38196;SDS011;26543;51.976;4.616;2022-08-19T10:20:44;8.18;;;4.32;;
38196;SDS011;26543;51.976;4.616;2022-08-19T10:23:10;6.80;;;3.88;;
38196;SDS011;26543;51.976;4.616;2022-08-19T10:25:36;4.65;;;3.55;;
38196;SDS011;26543;51.976;4.616;2022-08-19T10:28:02;5.82;;;3.00;;
38196;SDS011;26543;51.976;4.616;2022-08-19T10:30:28;5.07;;;3.20;;
38196;SDS011;26543;51.976;4.616;2022-08-19T10:32:54;6.28;;;3.00;;
38196;SDS011;26543;51.976;4.616;2022-08-19T10:35:19;4.90;;;3.00;;
38196;SDS011;26543;51.976;4.616;2022-08-19T10:37:45;4.25;;;2.60;;
38196;SDS011;26543;51.976;4.616;2022-08-19T10:40:10;4.22;;;2.58;;
38196;SDS011;26543;51.976;4.616;2022-08-19T10:42:36;4.75;;;1.90;;
38196;SDS011;26543;51.976;4.616;2022-08-19T10:45:02;5.53;;;2.40;;
38196;SDS011;26543;51.976;4.616;2022-08-19T10:47:28;4.00;;;2.28;;
38196;SDS011;26543;51.976;4.616;2022-08-19T10:49:54;6.07;;;1.83;;
38196;SDS011;26543;51.976;4.616;2022-08-19T10:52:43;4.32;;;1.45;;
38196;SDS011;26543;51.976;4.616;2022-08-19T10:55:10;3.42;;;1.40;;
38196;SDS011;26543;51.976;4.616;2022-08-19T10:57:53;3.03;;;1.23;;
38196;SDS011;26543;51.976;4.616;2022-08-19T11:00:20;2.03;;;0.80;;
38196;SDS011;26543;51.976;4.616;2022-08-19T11:02:46;2.78;;;0.95;;
38196;SDS011;26543;51.976;4.616;2022-08-19T11:05:11;1.38;;;0.90;;
38196;SDS011;26543;51.976;4.616;2022-08-19T11:07:40;2.65;;;1.02;;
38196;SDS011;26543;51.976;4.616;2022-08-19T11:10:06;2.80;;;1.45;;
38196;SDS011;26543;51.976;4.616;2022-08-19T11:12:33;1.85;;;1.10;;
38196;SDS011;26543;51.976;4.616;2022-08-19T11:17:28;3.75;;;1.13;;
38196;SDS011;26543;51.976;4.616;2022-08-19T11:19:56;2.92;;;1.38;;
38196;SDS011;26543;51.976;4.616;2022-08-19T11:22:21;4.22;;;1.73;;
38196;SDS011;26543;51.976;4.616;2022-08-19T11:24:47;4.30;;;1.85;;
38196;SDS011;26543;51.976;4.616;2022-08-19T11:27:12;2.63;;;1.60;;
38196;SDS011;26543;51.976;4.616;2022-08-19T11:29:38;3.50;;;1.77;;
38196;SDS011;26543;51.976;4.616;2022-08-19T11:32:05;2.63;;;1.50;;
38196;SDS011;26543;51.976;4.616;2022-08-19T11:34:32;1.92;;;1.25;;
38196;SDS011;26543;51.976;4.616;2022-08-19T11:36:57;2.47;;;1.25;;
38196;SDS011;26543;51.976;4.616;2022-08-19T11:39:24;2.42;;;1.20;;
38196;SDS011;26543;51.976;4.616;2022-08-19T11:41:52;2.72;;;0.98;;
38196;SDS011;26543;51.976;4.616;2022-08-19T11:44:17;2.00;;;0.80;;
38196;SDS011;26543;51.976;4.616;2022-08-19T11:46:43;1.42;;;0.80;;
38196;SDS011;26543;51.976;4.616;2022-08-19T11:49:12;2.60;;;0.80;;
38196;SDS011;26543;51.976;4.616;2022-08-19T11:51:40;1.30;;;0.80;;
38196;SDS011;26543;51.976;4.616;2022-08-19T11:54:09;2.53;;;1.20;;
38196;SDS011;26543;51.976;4.616;2022-08-19T11:56:36;1.33;;;0.70;;
38196;SDS011;26543;51.976;4.616;2022-08-19T11:59:02;1.67;;;1.02;;
38196;SDS011;26543;51.976;4.616;2022-08-19T12:01:28;1.40;;;0.43;;
38196;SDS011;26543;51.976;4.616;2022-08-19T12:03:54;1.70;;;0.63;;
38196;SDS011;26543;51.976;4.616;2022-08-19T12:06:22;0.82;;;0.30;;
38196;SDS011;26543;51.976;4.616;2022-08-19T12:08:53;1.55;;;0.40;;
38196;SDS011;26543;51.976;4.616;2022-08-19T12:13:48;1.13;;;0.40;;
38196;SDS011;26543;51.976;4.616;2022-08-19T12:16:17;0.70;;;0.45;;
38196;SDS011;26543;51.976;4.616;2022-08-19T12:18:44;1.45;;;0.68;;
38196;SDS011;26543;51.976;4.616;2022-08-19T12:21:11;0.35;;;0.30;;
38196;SDS011;26543;51.976;4.616;2022-08-19T12:23:41;0.90;;;0.50;;
38196;SDS011;26543;51.976;4.616;2022-08-19T12:26:10;0.50;;;0.20;;
38196;SDS011;26543;51.976;4.616;2022-08-19T12:28:36;1.95;;;0.50;;
38196;SDS011;26543;51.976;4.616;2022-08-19T12:31:02;0.85;;;0.55;;
38196;SDS011;26543;51.976;4.616;2022-08-19T12:33:27;1.30;;;0.40;;
38196;SDS011;26543;51.976;4.616;2022-08-19T12:35:54;0.95;;;0.50;;
38196;SDS011;26543;51.976;4.616;2022-08-19T12:38:28;1.20;;;0.70;;
38196;SDS011;26543;51.976;4.616;2022-08-19T12:40:53;2.30;;;0.80;;
38196;SDS011;26543;51.976;4.616;2022-08-19T12:43:19;1.40;;;0.82;;
38196;SDS011;26543;51.976;4.616;2022-08-19T12:45:45;1.17;;;0.65;;
38196;SDS011;26543;51.976;4.616;2022-08-19T12:48:11;4.47;;;1.20;;
38196;SDS011;26543;51.976;4.616;2022-08-19T12:50:40;2.00;;;0.90;;
38196;SDS011;26543;51.976;4.616;2022-08-19T12:53:07;1.85;;;0.85;;
38196;SDS011;26543;51.976;4.616;2022-08-19T12:55:33;1.65;;;0.82;;
38196;SDS011;26543;51.976;4.616;2022-08-19T12:57:59;1.27;;;0.60;;
38196;SDS011;26543;51.976;4.616;2022-08-19T13:00:26;0.70;;;0.43;;
38196;SDS011;26543;51.976;4.616;2022-08-19T13:02:52;1.73;;;0.77;;
38196;SDS011;26543;51.976;4.616;2022-08-19T13:05:20;1.02;;;0.52;;
38196;SDS011;26543;51.976;4.616;2022-08-19T13:07:48;1.23;;;0.35;;
38196;SDS011;26543;51.976;4.616;2022-08-19T13:10:16;1.05;;;0.50;;
38196;SDS011;26543;51.976;4.616;2022-08-19T13:12:45;1.98;;;0.70;;
38196;SDS011;26543;51.976;4.616;2022-08-19T13:15:13;1.10;;;0.43;;
38196;SDS011;26543;51.976;4.616;2022-08-19T13:17:40;2.35;;;1.10;;
38196;SDS011;26543;51.976;4.616;2022-08-19T13:20:08;1.98;;;1.10;;
38196;SDS011;26543;51.976;4.616;2022-08-19T13:22:36;2.25;;;1.27;;
38196;SDS011;26543;51.976;4.616;2022-08-19T13:25:03;2.85;;;1.42;;
38196;SDS011;26543;51.976;4.616;2022-08-19T13:27:30;3.13;;;1.63;;
38196;SDS011;26543;51.976;4.616;2022-08-19T13:29:55;3.05;;;1.85;;
38196;SDS011;26543;51.976;4.616;2022-08-19T13:32:39;3.88;;;1.70;;
38196;SDS011;26543;51.976;4.616;2022-08-19T13:35:23;3.53;;;1.90;;
38196;SDS011;26543;51.976;4.616;2022-08-19T13:37:48;4.05;;;2.30;;
38196;SDS011;26543;51.976;4.616;2022-08-19T13:40:15;3.35;;;1.98;;
38196;SDS011;26543;51.976;4.616;2022-08-19T13:42:49;2.70;;;1.83;;
38196;SDS011;26543;51.976;4.616;2022-08-19T13:45:17;4.22;;;2.38;;
38196;SDS011;26543;51.976;4.616;2022-08-19T13:47:45;5.70;;;3.03;;
38196;SDS011;26543;51.976;4.616;2022-08-19T13:50:14;5.35;;;2.33;;
38196;SDS011;26543;51.976;4.616;2022-08-19T13:52:42;4.72;;;2.35;;
38196;SDS011;26543;51.976;4.616;2022-08-19T13:55:09;3.47;;;2.22;;
38196;SDS011;26543;51.976;4.616;2022-08-19T13:57:36;3.88;;;2.45;;
38196;SDS011;26543;51.976;4.616;2022-08-19T14:00:05;3.83;;;2.55;;
38196;SDS011;26543;51.976;4.616;2022-08-19T14:02:35;3.00;;;2.15;;
38196;SDS011;26543;51.976;4.616;2022-08-19T14:05:01;3.70;;;2.22;;
38196;SDS011;26543;51.976;4.616;2022-08-19T14:07:26;5.35;;;2.78;;
38196;SDS011;26543;51.976;4.616;2022-08-19T14:09:51;4.30;;;2.60;;
38196;SDS011;26543;51.976;4.616;2022-08-19T14:12:20;6.95;;;2.75;;
38196;SDS011;26543;51.976;4.616;2022-08-19T14:14:49;4.97;;;2.13;;
38196;SDS011;26543;51.976;4.616;2022-08-19T14:17:15;2.97;;;1.77;;
38196;SDS011;26543;51.976;4.616;2022-08-19T14:19:40;3.33;;;2.17;;
38196;SDS011;26543;51.976;4.616;2022-08-19T14:22:06;3.13;;;1.90;;
38196;SDS011;26543;51.976;4.616;2022-08-19T14:24:32;4.63;;;2.63;;
38196;SDS011;26543;51.976;4.616;2022-08-19T14:26:58;4.80;;;2.22;;
38196;SDS011;26543;51.976;4.616;2022-08-19T14:29:24;5.07;;;2.75;;
38196;SDS011;26543;51.976;4.616;2022-08-19T14:31:50;5.05;;;2.13;;
38196;SDS011;26543;51.976;4.616;2022-08-19T14:34:15;3.95;;;2.45;;
38196;SDS011;26543;51.976;4.616;2022-08-19T14:36:41;7.75;;;2.60;;
38196;SDS011;26543;51.976;4.616;2022-08-19T14:39:06;5.20;;;2.17;;
38196;SDS011;26543;51.976;4.616;2022-08-19T14:41:33;3.03;;;1.85;;
38196;SDS011;26543;51.976;4.616;2022-08-19T14:43:59;3.10;;;1.58;;
38196;SDS011;26543;51.976;4.616;2022-08-19T14:46:25;2.40;;;1.38;;
38196;SDS011;26543;51.976;4.616;2022-08-19T14:48:52;1.13;;;0.60;;
38196;SDS011;26543;51.976;4.616;2022-08-19T14:51:19;1.17;;;0.55;;
38196;SDS011;26543;51.976;4.616;2022-08-19T14:53:46;1.15;;;0.70;;
38196;SDS011;26543;51.976;4.616;2022-08-19T14:56:15;1.00;;;0.45;;
38196;SDS011;26543;51.976;4.616;2022-08-19T14:58:43;0.98;;;0.40;;